createdAt,value
2023-04-25T00:03:12.829Z,11.64
2023-04-25T00:07:14.444Z,11.57
2023-04-25T00:11:15.952Z,11.57
2023-04-25T00:15:17.528Z,11.56
2023-04-25T00:19:19.048Z,11.56
2023-04-25T00:23:20.623Z,11.59
2023-04-25T00:27:22.153Z,11.62
2023-04-25T00:31:23.753Z,11.64
2023-04-25T00:35:25.319Z,11.64
2023-04-25T00:39:26.863Z,11.62
2023-04-25T00:43:29.397Z,11.59
2023-04-25T00:47:31.060Z,11.54
2023-04-25T00:51:34.152Z,11.54
2023-04-25T00:55:37.048Z,11.53
2023-04-25T00:59:39.434Z,11.48
2023-04-25T01:03:44.522Z,11.39
2023-04-25T01:07:46.554Z,11.33
2023-04-25T01:11:48.292Z,11.31
2023-04-25T01:15:49.904Z,11.33
2023-04-25T01:19:52.395Z,11.27
2023-04-25T01:23:55.341Z,11.24
2023-04-25T01:27:58.568Z,11.19
2023-04-25T01:32:01.413Z,11.17
2023-04-25T01:36:03.385Z,11.11
2023-04-25T01:40:06.448Z,11.05
2023-04-25T01:44:08.134Z,11.05
2023-04-25T01:48:10.770Z,11.02
2023-04-25T01:52:12.409Z,10.98
2023-04-25T01:56:14.295Z,11.01
2023-04-25T02:00:16.037Z,10.98
2023-04-25T02:04:17.789Z,11.01
2023-04-25T02:08:19.968Z,10.94
2023-04-25T02:12:21.694Z,10.93
2023-04-25T02:16:40.746Z,10.78
2023-04-25T02:20:43.756Z,10.80
2023-04-25T02:24:45.344Z,10.76
2023-04-25T02:28:46.965Z,10.69
2023-04-25T02:32:48.718Z,10.55
2023-04-25T02:36:53.025Z,10.47
2023-04-25T02:40:54.586Z,10.39
2023-04-25T02:44:56.092Z,10.42
2023-04-25T02:48:57.624Z,10.43
2023-04-25T02:52:59.179Z,10.39
2023-04-25T02:57:05.973Z,10.42
2023-04-25T03:01:12.085Z,10.44
2023-04-25T03:05:13.943Z,10.47
2023-04-25T03:09:16.437Z,10.47
2023-04-25T03:13:18.035Z,10.52
2023-04-25T03:17:19.661Z,10.51
2023-04-25T03:21:21.280Z,10.51
2023-04-25T03:25:22.847Z,10.47
2023-04-25T03:29:27.352Z,10.43
2023-04-25T03:33:29.889Z,10.43
2023-04-25T03:37:31.901Z,10.42
2023-04-25T03:41:33.583Z,10.39
2023-04-25T03:45:44.097Z,10.42
2023-04-25T03:49:46.285Z,10.49
2023-04-25T03:53:48.778Z,10.49
2023-04-25T03:57:50.541Z,10.46
2023-04-25T04:01:53.218Z,10.44
2023-04-25T04:05:55.178Z,10.36
2023-04-25T04:09:56.837Z,10.36
2023-04-25T04:14:04.133Z,10.34
2023-04-25T04:18:07.162Z,10.31
2023-04-25T04:22:09.310Z,10.34
2023-04-25T04:26:12.271Z,10.34
2023-04-25T04:30:40.468Z,10.29
2023-04-25T04:34:43.823Z,10.26
2023-04-25T04:38:49.690Z,10.17
2023-04-25T04:43:09.836Z,10.16
2023-04-25T04:47:31.874Z,10.14
2023-04-25T04:51:47.926Z,10.18
2023-04-25T04:56:16.256Z,10.10
2023-04-25T05:00:29.138Z,10.09
2023-04-25T05:04:49.245Z,10.06
2023-04-25T05:09:09.533Z,10.10
2023-04-25T05:13:31.400Z,10.17
2023-04-25T05:17:59.118Z,10.18
2023-04-25T05:22:00.660Z,10.32
2023-04-25T05:26:16.874Z,10.47
2023-04-25T05:30:41.364Z,10.57
2023-04-25T05:34:55.511Z,10.60
2023-04-25T05:39:20.041Z,10.62
2023-04-25T05:43:40.384Z,10.60
2023-04-25T05:47:55.989Z,10.62
2023-04-25T05:52:07.940Z,10.70
2023-04-25T05:56:27.959Z,10.65
2023-04-25T06:00:31.501Z,10.66
2023-04-25T06:04:33.494Z,10.65
2023-04-25T06:08:36.282Z,10.69
2023-04-25T06:12:39.554Z,10.62
2023-04-25T06:16:41.202Z,10.62
2023-04-25T06:20:42.859Z,10.62
2023-04-25T06:24:46.903Z,10.78
2023-04-25T06:28:48.768Z,10.90
2023-04-25T06:32:50.650Z,11.01
2023-04-25T06:36:52.503Z,10.95
2023-04-25T06:40:55.556Z,10.95
2023-04-25T06:44:57.302Z,11.02
2023-04-25T06:48:58.901Z,10.94
2023-04-25T06:53:02.390Z,10.94
2023-04-25T06:57:05.371Z,10.94
2023-04-25T07:01:08.338Z,10.94
2023-04-25T07:05:10.457Z,10.93
2023-04-25T07:09:12.965Z,10.91
2023-04-25T07:13:16.849Z,10.88
2023-04-25T07:17:19.772Z,10.88
2023-04-25T07:21:21.610Z,10.84
2023-04-25T07:25:25.989Z,11.02
2023-04-25T07:29:30.936Z,11.02
2023-04-25T07:33:34.827Z,11.17
2023-04-25T07:37:36.510Z,11.24
2023-04-25T07:41:44.782Z,11.05
2023-04-25T07:45:52.462Z,11.12
2023-04-25T07:49:55.300Z,11.17
2023-04-25T07:53:57.083Z,11.27
2023-04-25T07:57:58.775Z,11.31
2023-04-25T08:02:03.663Z,11.31
2023-04-25T08:06:08.292Z,11.30
2023-04-25T08:10:17.672Z,11.46
2023-04-25T08:14:19.394Z,11.64
2023-04-25T08:18:21.653Z,11.69
2023-04-25T08:22:25.348Z,11.78
2023-04-25T08:26:35.438Z,11.77
2023-04-25T08:30:37.788Z,11.77
2023-04-25T08:34:43.139Z,11.79
2023-04-25T08:38:44.870Z,11.97
2023-04-25T08:42:48.542Z,11.97
2023-04-25T08:46:51.243Z,12.03
2023-04-25T08:55:16.977Z,12.22
2023-04-25T08:59:19.087Z,12.46
2023-04-25T09:03:21.834Z,12.41
2023-04-25T09:07:24.761Z,12.34
2023-04-25T09:11:26.463Z,12.22
2023-04-25T09:15:30.959Z,12.11
2023-04-25T09:19:52.901Z,12.16
2023-04-25T09:24:08.147Z,12.30
2023-04-25T09:28:10.827Z,12.55
2023-04-25T09:32:24.954Z,12.58
2023-04-25T09:36:31.811Z,12.66
2023-04-25T09:40:52.762Z,12.81
2023-04-25T09:45:04.833Z,12.61
2023-04-25T09:49:11.522Z,12.70
2023-04-25T09:53:39.763Z,12.88
2023-04-25T09:57:53.743Z,12.85
2023-04-25T10:01:57.180Z,12.63
2023-04-25T10:06:20.455Z,12.66
2023-04-25T10:10:29.614Z,12.81
2023-04-25T10:14:32.700Z,12.87
2023-04-25T10:18:34.315Z,12.99
2023-04-25T10:22:39.100Z,13.24
2023-04-25T10:26:41.388Z,13.19
2023-04-25T10:31:05.358Z,13.36
2023-04-25T10:35:20.449Z,13.66
2023-04-25T10:39:28.036Z,13.90
2023-04-25T10:43:32.828Z,13.54
2023-04-25T10:47:44.072Z,13.16
2023-04-25T10:55:52.977Z,12.63
2023-04-25T10:59:54.564Z,12.55
2023-04-25T11:03:59.581Z,12.54
2023-04-25T11:08:07.583Z,12.46
2023-04-25T11:12:12.556Z,12.56
2023-04-25T11:16:23.702Z,12.74
2023-04-25T11:20:29.894Z,13.03
2023-04-25T11:24:35.759Z,13.46
2023-04-25T11:28:37.437Z,13.59
2023-04-25T11:32:40.902Z,13.86
2023-04-25T11:36:42.603Z,13.90
2023-04-25T11:40:44.168Z,13.80
2023-04-25T11:44:45.953Z,13.62
2023-04-25T11:48:48.866Z,13.61
2023-04-25T11:52:51.297Z,13.55
2023-04-25T11:56:52.935Z,13.36
2023-04-25T12:00:55.019Z,13.48
2023-04-25T12:05:11.864Z,13.50
2023-04-25T12:09:29.976Z,13.29
2023-04-25T12:13:32.639Z,13.12
2023-04-25T12:17:34.499Z,13.01
2023-04-25T12:21:41.196Z,13.16
2023-04-25T12:25:51.978Z,13.29
2023-04-25T12:29:55.732Z,13.53
2023-04-25T12:33:58.072Z,13.90
2023-04-25T12:37:59.616Z,14.06
2023-04-25T12:42:01.981Z,14.05
2023-04-25T12:46:04.037Z,13.90
2023-04-25T12:50:07.067Z,13.91
2023-04-25T12:54:09.370Z,14.11
2023-04-25T12:58:11.159Z,14.09
2023-04-25T13:02:12.893Z,13.98
2023-04-25T13:06:15.173Z,13.81
2023-04-25T13:10:16.863Z,13.94
2023-04-25T13:14:18.480Z,14.23
2023-04-25T13:18:20.380Z,14.69
2023-04-25T13:22:21.980Z,14.54
2023-04-25T13:26:23.589Z,14.74
2023-04-25T13:30:25.168Z,14.57
2023-04-25T13:34:26.767Z,14.49
2023-04-25T13:38:28.338Z,14.53
2023-04-25T13:42:30.071Z,14.39
2023-04-25T13:46:45.687Z,14.29
2023-04-25T13:50:48.930Z,14.13
2023-04-25T13:54:51.504Z,14.20
2023-04-25T13:58:53.434Z,14.21
2023-04-25T14:02:55.072Z,14.27
2023-04-25T14:06:57.235Z,14.27
2023-04-25T14:10:59.051Z,14.36
2023-04-25T14:15:01.052Z,14.12
2023-04-25T14:19:02.681Z,13.88
2023-04-25T14:23:04.410Z,13.68
2023-04-25T14:27:06.213Z,13.63
2023-04-25T14:31:08.450Z,13.55
2023-04-25T14:35:10.051Z,13.55
2023-04-25T14:39:11.686Z,13.59
2023-04-25T14:43:13.252Z,13.32
2023-04-25T14:47:14.859Z,13.25
2023-04-25T14:51:16.692Z,13.17
2023-04-25T14:55:18.437Z,13.22
2023-04-25T14:59:21.418Z,13.36
2023-04-25T15:03:23.483Z,13.46
2023-04-25T15:07:25.637Z,13.51
2023-04-25T15:11:27.385Z,13.69
2023-04-25T15:15:28.956Z,13.79
2023-04-25T15:19:30.599Z,13.87
2023-04-25T15:23:32.392Z,13.87
2023-04-25T15:27:34.540Z,13.81
2023-04-25T15:31:36.719Z,13.71
2023-04-25T15:35:38.484Z,13.65
2023-04-25T15:39:40.241Z,13.57
2023-04-25T15:43:41.860Z,13.51
2023-04-25T15:47:44.109Z,13.44
2023-04-25T15:51:45.809Z,13.36
2023-04-25T15:55:47.631Z,13.16
2023-04-25T15:59:50.136Z,13.16
2023-04-25T16:03:53.381Z,13.13
2023-04-25T16:07:55.472Z,13.13
2023-04-25T16:11:57.346Z,13.13
2023-04-25T16:15:59.188Z,13.04
2023-04-25T16:20:01.973Z,12.92
2023-04-25T16:24:03.992Z,12.92
2023-04-25T16:28:05.813Z,12.94
2023-04-25T16:32:07.935Z,12.95
2023-04-25T16:36:09.820Z,12.98
2023-04-25T16:40:12.164Z,12.99
2023-04-25T16:44:13.938Z,12.94
2023-04-25T16:48:16.401Z,12.84
2023-04-25T16:52:18.031Z,12.81
2023-04-25T16:56:19.589Z,12.76
2023-04-25T17:00:21.511Z,12.71
2023-04-25T17:04:23.292Z,12.63
2023-04-25T17:08:25.020Z,12.58
2023-04-25T17:12:26.693Z,12.51
2023-04-25T17:16:36.508Z,12.44
2023-04-25T17:20:38.618Z,12.40
2023-04-25T17:24:40.651Z,12.37
2023-04-25T17:28:45.037Z,12.33
2023-04-25T17:32:46.642Z,12.30
2023-04-25T17:36:48.405Z,12.30
2023-04-25T17:40:49.959Z,12.26
2023-04-25T17:44:52.318Z,12.21
2023-04-25T17:48:54.417Z,12.13
2023-04-25T17:52:56.346Z,12.03
2023-04-25T17:56:57.971Z,11.94
2023-04-25T18:00:59.588Z,11.88
2023-04-25T18:05:01.462Z,11.84
2023-04-25T18:09:08.342Z,11.81
2023-04-25T18:13:09.914Z,11.75
2023-04-25T18:17:12.346Z,11.75
2023-04-25T18:21:13.922Z,11.69
2023-04-25T18:25:15.639Z,11.69
2023-04-25T18:29:31.308Z,11.69
2023-04-25T18:33:33.551Z,11.69
2023-04-25T18:37:35.064Z,11.64
2023-04-25T18:41:54.280Z,11.66
2023-04-25T18:45:59.406Z,11.62
2023-04-25T18:50:00.982Z,11.60
2023-04-25T18:54:04.453Z,11.49
2023-04-25T18:58:07.696Z,11.48
2023-04-25T19:02:09.452Z,11.42
2023-04-25T19:06:11.609Z,11.42
2023-04-25T19:10:13.142Z,11.39
2023-04-25T19:14:15.767Z,11.39
2023-04-25T19:18:17.931Z,11.31
2023-04-25T19:22:20.253Z,11.30
2023-04-25T19:26:22.400Z,11.26
2023-04-25T19:30:24.021Z,11.20
2023-04-25T19:34:25.906Z,11.12
2023-04-25T19:38:27.620Z,11.12
2023-04-25T19:42:29.209Z,11.11
2023-04-25T19:46:31.991Z,11.11
2023-04-25T19:50:33.623Z,11.13
2023-04-25T19:54:35.483Z,11.11
2023-04-25T19:58:37.572Z,11.12
2023-04-25T20:02:39.851Z,11.11
2023-04-25T20:06:41.701Z,11.09
2023-04-25T20:10:43.677Z,11.03
2023-04-25T20:14:45.489Z,10.99
2023-04-25T20:18:48.361Z,10.99
2023-04-25T20:22:51.002Z,10.90
2023-04-25T20:26:52.611Z,10.90
2023-04-25T20:30:54.370Z,10.84
2023-04-25T20:34:56.561Z,10.70
2023-04-25T20:38:58.411Z,10.66
2023-04-25T20:43:01.566Z,10.62
2023-04-25T20:47:03.133Z,10.58
2023-04-25T20:51:07.056Z,10.55
2023-04-25T20:55:10.718Z,10.46
2023-04-25T20:59:12.991Z,10.34
2023-04-25T21:03:15.946Z,10.29
2023-04-25T21:07:17.754Z,10.22
2023-04-25T21:11:19.489Z,10.13
2023-04-25T21:15:21.404Z,9.98
2023-04-25T21:19:23.037Z,9.86
2023-04-25T21:23:24.694Z,9.77
2023-04-25T21:27:26.294Z,9.68
2023-04-25T21:31:28.205Z,9.67
2023-04-25T21:35:29.754Z,9.65
2023-04-25T21:39:31.551Z,9.60
2023-04-25T21:43:33.113Z,9.44
2023-04-25T21:47:34.974Z,9.42
2023-04-25T21:51:36.668Z,9.30
2023-04-25T21:55:39.315Z,9.15
2023-04-25T21:59:41.402Z,9.06
2023-04-25T22:03:43.112Z,9.06
2023-04-25T22:07:44.785Z,9.15
2023-04-25T22:11:46.904Z,9.16
2023-04-25T22:15:48.631Z,9.17
2023-04-25T22:19:51.782Z,9.19
2023-04-25T22:23:53.785Z,9.16
2023-04-25T22:27:55.706Z,9.17
2023-04-25T22:31:58.362Z,9.16
2023-04-25T22:36:00.345Z,9.13
2023-04-25T22:40:09.179Z,9.12
2023-04-25T22:44:11.921Z,9.03
2023-04-25T22:48:13.618Z,9.03
2023-04-25T22:52:15.372Z,9.01
2023-04-25T22:56:17.315Z,9.00
2023-04-25T23:00:22.085Z,9.00
2023-04-25T23:04:24.507Z,8.94
2023-04-25T23:08:27.854Z,8.96
2023-04-25T23:12:29.432Z,8.94
2023-04-25T23:16:31.244Z,8.96
2023-04-25T23:20:33.657Z,8.94
2023-04-25T23:24:41.128Z,8.96
2023-04-25T23:28:42.935Z,8.97
2023-04-25T23:32:44.598Z,8.98
2023-04-25T23:36:46.143Z,8.93
2023-04-25T23:40:47.739Z,8.79
2023-04-25T23:44:49.465Z,8.80
2023-04-25T23:48:51.303Z,8.82
2023-04-25T23:52:53.144Z,8.80
2023-04-25T23:56:54.724Z,8.78
